Hauptseite
METAR-TAF:

METAR-TAF

Flughäfen :

Flughafen Dubai

Dubai, Vereinigte Arabische Emirate

Breite: 25-15-10N, Länge: 055-21-52E, Höhe: 8 m

Beobachtung

Neuester Wetterbericht von vor 45 Minuten, um 18:00 UTC
Wind 5 kt aus Ost, variierte zwischen Ost/Nordost und Ost/Südost
Temperatur 28°C
Luftfeuchtigkeit 58%
Luftdruck 1018 hPa
Sichtweite 10 km oder mehr
keine Wolken unter 1500 m und keine Kumulonimbus oder Gewitterwolken

METAR: OMDB 161800Z 09005KT 060V120 CAVOK 28/19 Q1018 NOSIG

Zeit: 22:45 (18:45 UTC)

Prognose

Neuester Wetterbericht von vor 1 Stunde und 47 Minuten, um 16:58 UTC
Gültige Prognose vom 16 um 18 UTC bis 18 um 00 UTC
Wind 5 kt aus Ost
Sichtweite: 8000 m
Übergehend zu
vom 17 um 07 UTC bis 17 um 09 UTC
Wind 12 kt aus Nordwest
Übergehend zu
vom 17 um 16 UTC bis 17 um 18 UTC
Wind 6 kt aus Süd/Südwest

TAF: OMDB 161658Z 1618/1800 09005KT 8000 NSC BECMG 1707/1709 32012KT BECMG 1716/1718 20006KT

Wetterbeobachtungen und Prognosen von mehr als 4000 Flughäfen (METAR und TAF Bericht).

Die verfügbaren Stationen werden durch gelbe und rote Markierungen auf der Karte dargestellt.

Führen Sie die Maus auf sie, um den Namen der Station zu sehen.

Darauf klicken, um die Beobachtung von Wetterbeobachtungen und Prognosen zu sehen.

Um die Karte zu ändern : klicken Sie auf den grünen Tasten mit einem schwarzen Kreuz Zum Vergrößern, auf den grünen Button mit einem Gedankenstrich zu verkleinern, oder auf die grünen Pfeile für benachbarte Karten.


METAR-TAF: